sensor_id;sensor_type;location;lat;lon;timestamp;temperature;humidity
75022;SHT31;63583;49.976;20.182;2023-02-22T00:01:33;5.99;73.55
75022;SHT31;63583;49.976;20.182;2023-02-22T00:04:15;5.95;74.09
75022;SHT31;63583;49.976;20.182;2023-02-22T00:06:46;6.05;73.65
75022;SHT31;63583;49.976;20.182;2023-02-22T00:09:12;5.91;74.59
75022;SHT31;63583;49.976;20.182;2023-02-22T00:11:47;5.96;74.05
75022;SHT31;63583;49.976;20.182;2023-02-22T00:14:13;5.86;74.60
75022;SHT31;63583;49.976;20.182;2023-02-22T00:16:38;5.76;75.24
75022;SHT31;63583;49.976;20.182;2023-02-22T00:19:04;5.71;75.77
75022;SHT31;63583;49.976;20.182;2023-02-22T00:21:30;5.61;76.33
75022;SHT31;63583;49.976;20.182;2023-02-22T00:23:56;5.89;75.31
75022;SHT31;63583;49.976;20.182;2023-02-22T00:26:21;5.76;75.32
75022;SHT31;63583;49.976;20.182;2023-02-22T00:28:52;5.81;75.44
75022;SHT31;63583;49.976;20.182;2023-02-22T00:31:18;5.83;75.53
75022;SHT31;63583;49.976;20.182;2023-02-22T00:33:44;5.96;75.24
75022;SHT31;63583;49.976;20.182;2023-02-22T00:36:12;5.82;75.77
75022;SHT31;63583;49.976;20.182;2023-02-22T00:38:39;5.85;75.98
75022;SHT31;63583;49.976;20.182;2023-02-22T00:41:05;5.88;75.70
75022;SHT31;63583;49.976;20.182;2023-02-22T00:43:32;5.89;75.87
75022;SHT31;63583;49.976;20.182;2023-02-22T00:45:57;5.89;75.81
75022;SHT31;63583;49.976;20.182;2023-02-22T00:48:23;5.81;76.26
75022;SHT31;63583;49.976;20.182;2023-02-22T00:50:49;5.76;76.53
75022;SHT31;63583;49.976;20.182;2023-02-22T00:53:23;5.72;76.87
75022;SHT31;63583;49.976;20.182;2023-02-22T00:55:50;5.93;76.24
75022;SHT31;63583;49.976;20.182;2023-02-22T00:58:16;5.88;76.33
75022;SHT31;63583;49.976;20.182;2023-02-22T01:00:43;5.91;75.52
75022;SHT31;63583;49.976;20.182;2023-02-22T01:03:11;5.82;75.08
75022;SHT31;63583;49.976;20.182;2023-02-22T01:05:37;5.75;75.18
75022;SHT31;63583;49.976;20.182;2023-02-22T01:08:05;5.79;74.93
75022;SHT31;63583;49.976;20.182;2023-02-22T01:10:32;5.75;75.39
75022;SHT31;63583;49.976;20.182;2023-02-22T01:12:59;5.81;75.15
75022;SHT31;63583;49.976;20.182;2023-02-22T01:15:28;5.82;75.50
75022;SHT31;63583;49.976;20.182;2023-02-22T01:17:56;5.65;75.93
75022;SHT31;63583;49.976;20.182;2023-02-22T01:20:23;5.71;76.11
75022;SHT31;63583;49.976;20.182;2023-02-22T01:22:52;5.61;76.64
75022;SHT31;63583;49.976;20.182;2023-02-22T01:25:23;5.56;76.95
75022;SHT31;63583;49.976;20.182;2023-02-22T01:27:50;5.65;76.58
75022;SHT31;63583;49.976;20.182;2023-02-22T01:30:21;5.58;77.02
75022;SHT31;63583;49.976;20.182;2023-02-22T01:32:47;5.64;76.46
75022;SHT31;63583;49.976;20.182;2023-02-22T01:35:21;5.68;76.51
75022;SHT31;63583;49.976;20.182;2023-02-22T01:37:48;5.55;77.18
75022;SHT31;63583;49.976;20.182;2023-02-22T01:40:18;5.45;77.96
75022;SHT31;63583;49.976;20.182;2023-02-22T01:42:47;5.41;78.08
75022;SHT31;63583;49.976;20.182;2023-02-22T01:48:02;5.37;78.64
75022;SHT31;63583;49.976;20.182;2023-02-22T01:50:32;5.31;78.77
75022;SHT31;63583;49.976;20.182;2023-02-22T01:53:00;5.40;79.07
75022;SHT31;63583;49.976;20.182;2023-02-22T01:55:26;5.38;78.94
75022;SHT31;63583;49.976;20.182;2023-02-22T01:57:52;5.31;79.35
75022;SHT31;63583;49.976;20.182;2023-02-22T02:00:19;5.34;79.35
75022;SHT31;63583;49.976;20.182;2023-02-22T02:02:49;5.37;79.20
75022;SHT31;63583;49.976;20.182;2023-02-22T02:05:18;5.38;79.39
75022;SHT31;63583;49.976;20.182;2023-02-22T02:07:44;5.48;78.89
75022;SHT31;63583;49.976;20.182;2023-02-22T02:10:13;5.40;79.14
75022;SHT31;63583;49.976;20.182;2023-02-22T02:12:48;5.50;78.75
75022;SHT31;63583;49.976;20.182;2023-02-22T02:15:26;5.47;78.84
75022;SHT31;63583;49.976;20.182;2023-02-22T02:17:55;5.45;79.09
75022;SHT31;63583;49.976;20.182;2023-02-22T02:34:55;5.51;78.52
75022;SHT31;63583;49.976;20.182;2023-02-22T02:40:13;5.47;78.74
75022;SHT31;63583;49.976;20.182;2023-02-22T02:42:54;5.44;78.92
75022;SHT31;63583;49.976;20.182;2023-02-22T02:45:28;5.47;78.60
75022;SHT31;63583;49.976;20.182;2023-02-22T02:47:55;5.44;78.94
75022;SHT31;63583;49.976;20.182;2023-02-22T02:50:28;5.48;78.42
75022;SHT31;63583;49.976;20.182;2023-02-22T02:52:58;5.56;77.66
75022;SHT31;63583;49.976;20.182;2023-02-22T02:55:28;5.52;78.35
75022;SHT31;63583;49.976;20.182;2023-02-22T02:57:54;5.47;78.61
75022;SHT31;63583;49.976;20.182;2023-02-22T03:00:23;5.44;78.52
75022;SHT31;63583;49.976;20.182;2023-02-22T03:05:36;5.20;79.85
75022;SHT31;63583;49.976;20.182;2023-02-22T03:08:16;5.19;79.82
75022;SHT31;63583;49.976;20.182;2023-02-22T03:13:35;5.30;79.37
75022;SHT31;63583;49.976;20.182;2023-02-22T03:26:42;5.50;78.33
75022;SHT31;63583;49.976;20.182;2023-02-22T03:29:10;5.41;78.59
75022;SHT31;63583;49.976;20.182;2023-02-22T03:31:44;5.28;78.87
75022;SHT31;63583;49.976;20.182;2023-02-22T03:34:22;5.22;79.46
75022;SHT31;63583;49.976;20.182;2023-02-22T03:36:56;5.33;79.03
75022;SHT31;63583;49.976;20.182;2023-02-22T03:39:24;5.34;78.84
75022;SHT31;63583;49.976;20.182;2023-02-22T03:42:03;5.37;78.73
75022;SHT31;63583;49.976;20.182;2023-02-22T03:44:30;5.30;78.85
75022;SHT31;63583;49.976;20.182;2023-02-22T03:47:00;5.12;79.71
75022;SHT31;63583;49.976;20.182;2023-02-22T03:49:49;5.16;79.82
75022;SHT31;63583;49.976;20.182;2023-02-22T03:52:16;5.14;79.66
75022;SHT31;63583;49.976;20.182;2023-02-22T03:54:42;5.23;79.27
75022;SHT31;63583;49.976;20.182;2023-02-22T03:57:13;5.23;79.53
75022;SHT31;63583;49.976;20.182;2023-02-22T03:59:41;5.17;79.59
75022;SHT31;63583;49.976;20.182;2023-02-22T04:02:07;5.13;79.69
75022;SHT31;63583;49.976;20.182;2023-02-22T04:04:33;5.41;78.64
75022;SHT31;63583;49.976;20.182;2023-02-22T04:06:59;5.17;79.40
75022;SHT31;63583;49.976;20.182;2023-02-22T04:09:24;5.10;79.31
75022;SHT31;63583;49.976;20.182;2023-02-22T04:11:50;5.22;79.14
75022;SHT31;63583;49.976;20.182;2023-02-22T04:14:16;5.24;78.74
75022;SHT31;63583;49.976;20.182;2023-02-22T04:16:42;5.23;79.18
75022;SHT31;63583;49.976;20.182;2023-02-22T04:19:07;5.20;79.15
75022;SHT31;63583;49.976;20.182;2023-02-22T04:21:33;5.23;79.17
75022;SHT31;63583;49.976;20.182;2023-02-22T04:23:59;5.12;79.65
75022;SHT31;63583;49.976;20.182;2023-02-22T04:26:25;5.09;79.68
75022;SHT31;63583;49.976;20.182;2023-02-22T04:28:50;5.07;80.03
75022;SHT31;63583;49.976;20.182;2023-02-22T04:31:16;5.03;80.14
75022;SHT31;63583;49.976;20.182;2023-02-22T04:33:42;4.93;80.82
75022;SHT31;63583;49.976;20.182;2023-02-22T04:36:08;4.99;80.55
75022;SHT31;63583;49.976;20.182;2023-02-22T04:38:35;4.97;80.62
75022;SHT31;63583;49.976;20.182;2023-02-22T04:41:01;4.95;80.88
75022;SHT31;63583;49.976;20.182;2023-02-22T04:43:27;4.93;80.78
75022;SHT31;63583;49.976;20.182;2023-02-22T04:45:52;5.14;79.75
75022;SHT31;63583;49.976;20.182;2023-02-22T04:48:18;5.06;79.87
75022;SHT31;63583;49.976;20.182;2023-02-22T04:50:44;4.92;80.63
75022;SHT31;63583;49.976;20.182;2023-02-22T04:53:09;4.80;81.10
75022;SHT31;63583;49.976;20.182;2023-02-22T04:55:36;4.79;81.16
75022;SHT31;63583;49.976;20.182;2023-02-22T04:58:02;4.83;80.91
75022;SHT31;63583;49.976;20.182;2023-02-22T05:00:28;4.73;81.18
75022;SHT31;63583;49.976;20.182;2023-02-22T05:02:54;4.86;81.06
75022;SHT31;63583;49.976;20.182;2023-02-22T05:05:21;4.85;80.98
75022;SHT31;63583;49.976;20.182;2023-02-22T05:07:48;4.80;81.26
75022;SHT31;63583;49.976;20.182;2023-02-22T05:10:14;4.78;81.39
75022;SHT31;63583;49.976;20.182;2023-02-22T05:12:40;4.82;81.03
75022;SHT31;63583;49.976;20.182;2023-02-22T05:15:07;4.83;80.99
75022;SHT31;63583;49.976;20.182;2023-02-22T05:17:34;4.85;80.90
75022;SHT31;63583;49.976;20.182;2023-02-22T05:20:00;4.78;81.11
75022;SHT31;63583;49.976;20.182;2023-02-22T05:22:27;4.78;80.75
75022;SHT31;63583;49.976;20.182;2023-02-22T05:24:53;4.76;81.26
75022;SHT31;63583;49.976;20.182;2023-02-22T05:27:18;4.86;80.75
75022;SHT31;63583;49.976;20.182;2023-02-22T05:29:45;4.85;80.72
75022;SHT31;63583;49.976;20.182;2023-02-22T05:32:10;4.92;80.27
75022;SHT31;63583;49.976;20.182;2023-02-22T05:34:39;4.80;80.79
75022;SHT31;63583;49.976;20.182;2023-02-22T05:37:05;4.80;81.03
75022;SHT31;63583;49.976;20.182;2023-02-22T05:39:31;4.92;80.40
75022;SHT31;63583;49.976;20.182;2023-02-22T05:41:57;4.83;80.75
75022;SHT31;63583;49.976;20.182;2023-02-22T05:44:23;4.76;81.70
75022;SHT31;63583;49.976;20.182;2023-02-22T05:46:49;4.75;81.25
75022;SHT31;63583;49.976;20.182;2023-02-22T05:49:15;4.80;81.29
75022;SHT31;63583;49.976;20.182;2023-02-22T05:51:41;4.78;81.28
75022;SHT31;63583;49.976;20.182;2023-02-22T05:54:06;4.73;81.38
75022;SHT31;63583;49.976;20.182;2023-02-22T05:56:32;4.67;81.64
75022;SHT31;63583;49.976;20.182;2023-02-22T05:58:58;4.68;81.83
75022;SHT31;63583;49.976;20.182;2023-02-22T06:01:24;4.76;81.20
75022;SHT31;63583;49.976;20.182;2023-02-22T06:03:50;4.80;81.32
75022;SHT31;63583;49.976;20.182;2023-02-22T06:06:17;4.82;81.39
75022;SHT31;63583;49.976;20.182;2023-02-22T06:08:45;4.85;80.90
75022;SHT31;63583;49.976;20.182;2023-02-22T06:11:11;4.82;81.12
75022;SHT31;63583;49.976;20.182;2023-02-22T06:13:38;4.85;80.98
75022;SHT31;63583;49.976;20.182;2023-02-22T06:16:06;5.05;80.14
75022;SHT31;63583;49.976;20.182;2023-02-22T06:18:33;5.05;80.28
75022;SHT31;63583;49.976;20.182;2023-02-22T06:20:58;5.05;80.27
75022;SHT31;63583;49.976;20.182;2023-02-22T06:23:27;5.01;80.64
75022;SHT31;63583;49.976;20.182;2023-02-22T06:25:52;4.95;81.08
75022;SHT31;63583;49.976;20.182;2023-02-22T06:28:18;4.92;81.22
75022;SHT31;63583;49.976;20.182;2023-02-22T06:30:44;4.89;81.45
75022;SHT31;63583;49.976;20.182;2023-02-22T06:33:10;4.95;81.38
75022;SHT31;63583;49.976;20.182;2023-02-22T06:35:36;5.00;81.35
75022;SHT31;63583;49.976;20.182;2023-02-22T06:38:02;4.97;81.86
75022;SHT31;63583;49.976;20.182;2023-02-22T06:40:28;5.14;81.51
75022;SHT31;63583;49.976;20.182;2023-02-22T06:42:55;5.16;81.22
75022;SHT31;63583;49.976;20.182;2023-02-22T06:45:21;5.20;80.70
75022;SHT31;63583;49.976;20.182;2023-02-22T06:47:47;5.31;80.35
75022;SHT31;63583;49.976;20.182;2023-02-22T06:50:20;5.33;80.01
75022;SHT31;63583;49.976;20.182;2023-02-22T06:52:47;5.43;79.67
75022;SHT31;63583;49.976;20.182;2023-02-22T06:55:16;5.33;80.20
75022;SHT31;63583;49.976;20.182;2023-02-22T06:57:43;5.35;79.69
75022;SHT31;63583;49.976;20.182;2023-02-22T07:00:09;5.41;79.73
75022;SHT31;63583;49.976;20.182;2023-02-22T07:02:35;5.37;79.27
75022;SHT31;63583;49.976;20.182;2023-02-22T07:05:01;5.44;78.87
75022;SHT31;63583;49.976;20.182;2023-02-22T07:07:27;5.64;78.30
75022;SHT31;63583;49.976;20.182;2023-02-22T07:09:54;5.50;79.33
75022;SHT31;63583;49.976;20.182;2023-02-22T07:12:19;5.54;79.23
75022;SHT31;63583;49.976;20.182;2023-02-22T07:14:45;5.56;78.97
75022;SHT31;63583;49.976;20.182;2023-02-22T07:17:11;5.64;79.44
75022;SHT31;63583;49.976;20.182;2023-02-22T07:19:37;5.62;79.07
75022;SHT31;63583;49.976;20.182;2023-02-22T07:22:03;5.61;78.99
75022;SHT31;63583;49.976;20.182;2023-02-22T07:24:30;5.54;79.29
75022;SHT31;63583;49.976;20.182;2023-02-22T07:26:56;5.61;79.36
75022;SHT31;63583;49.976;20.182;2023-02-22T07:29:21;5.61;78.90
75022;SHT31;63583;49.976;20.182;2023-02-22T07:31:48;5.54;79.59
75022;SHT31;63583;49.976;20.182;2023-02-22T07:34:13;5.61;78.81
75022;SHT31;63583;49.976;20.182;2023-02-22T07:36:39;5.71;78.32
75022;SHT31;63583;49.976;20.182;2023-02-22T07:39:05;5.68;78.42
75022;SHT31;63583;49.976;20.182;2023-02-22T07:41:33;5.58;79.01
75022;SHT31;63583;49.976;20.182;2023-02-22T07:43:59;5.74;78.87
75022;SHT31;63583;49.976;20.182;2023-02-22T07:46:25;5.74;77.52
75022;SHT31;63583;49.976;20.182;2023-02-22T07:48:50;5.83;77.23
75022;SHT31;63583;49.976;20.182;2023-02-22T07:51:16;5.79;76.87
75022;SHT31;63583;49.976;20.182;2023-02-22T07:53:45;5.71;78.32
75022;SHT31;63583;49.976;20.182;2023-02-22T07:56:11;5.82;76.67
75022;SHT31;63583;49.976;20.182;2023-02-22T07:58:36;5.86;75.79
75022;SHT31;63583;49.976;20.182;2023-02-22T08:01:03;5.92;75.36
75022;SHT31;63583;49.976;20.182;2023-02-22T08:03:32;6.01;75.90
75022;SHT31;63583;49.976;20.182;2023-02-22T08:06:01;6.03;75.41
75022;SHT31;63583;49.976;20.182;2023-02-22T08:08:27;6.06;75.30
75022;SHT31;63583;49.976;20.182;2023-02-22T08:10:53;6.34;74.09
75022;SHT31;63583;49.976;20.182;2023-02-22T08:13:19;6.26;73.66
75022;SHT31;63583;49.976;20.182;2023-02-22T08:15:48;6.36;73.34
75022;SHT31;63583;49.976;20.182;2023-02-22T08:18:16;6.36;73.36
75022;SHT31;63583;49.976;20.182;2023-02-22T08:20:43;6.51;73.50
75022;SHT31;63583;49.976;20.182;2023-02-22T08:23:10;6.38;72.68
75022;SHT31;63583;49.976;20.182;2023-02-22T08:25:36;6.38;73.55
75022;SHT31;63583;49.976;20.182;2023-02-22T08:28:06;6.64;71.68
75022;SHT31;63583;49.976;20.182;2023-02-22T08:30:33;6.44;72.24
75022;SHT31;63583;49.976;20.182;2023-02-22T08:32:59;6.47;72.21
75022;SHT31;63583;49.976;20.182;2023-02-22T08:35:28;6.42;72.74
75022;SHT31;63583;49.976;20.182;2023-02-22T08:37:57;6.57;70.53
75022;SHT31;63583;49.976;20.182;2023-02-22T08:40:26;6.64;71.94
75022;SHT31;63583;49.976;20.182;2023-02-22T08:42:52;6.55;71.64
75022;SHT31;63583;49.976;20.182;2023-02-22T08:45:18;6.64;71.31
75022;SHT31;63583;49.976;20.182;2023-02-22T08:47:45;6.67;70.44
75022;SHT31;63583;49.976;20.182;2023-02-22T08:50:17;6.67;68.88
75022;SHT31;63583;49.976;20.182;2023-02-22T08:52:43;6.88;68.90
75022;SHT31;63583;49.976;20.182;2023-02-22T08:55:09;6.84;68.64
75022;SHT31;63583;49.976;20.182;2023-02-22T08:57:35;6.79;68.26
75022;SHT31;63583;49.976;20.182;2023-02-22T09:00:03;6.78;67.37
75022;SHT31;63583;49.976;20.182;2023-02-22T09:02:30;6.67;68.28
75022;SHT31;63583;49.976;20.182;2023-02-22T09:04:56;6.61;70.33
75022;SHT31;63583;49.976;20.182;2023-02-22T09:07:22;6.45;69.06
75022;SHT31;63583;49.976;20.182;2023-02-22T09:09:49;6.65;68.78
75022;SHT31;63583;49.976;20.182;2023-02-22T09:12:14;6.63;69.23
75022;SHT31;63583;49.976;20.182;2023-02-22T09:14:40;6.84;69.32
75022;SHT31;63583;49.976;20.182;2023-02-22T09:17:07;6.87;67.68
75022;SHT31;63583;49.976;20.182;2023-02-22T09:19:33;6.72;67.70
75022;SHT31;63583;49.976;20.182;2023-02-22T09:21:59;6.78;67.70
75022;SHT31;63583;49.976;20.182;2023-02-22T09:24:25;6.81;67.85
75022;SHT31;63583;49.976;20.182;2023-02-22T09:26:51;6.82;69.21
75022;SHT31;63583;49.976;20.182;2023-02-22T09:29:21;6.96;68.63
75022;SHT31;63583;49.976;20.182;2023-02-22T09:31:49;6.85;67.45
75022;SHT31;63583;49.976;20.182;2023-02-22T09:34:17;6.81;68.37
75022;SHT31;63583;49.976;20.182;2023-02-22T09:36:45;6.91;66.84
75022;SHT31;63583;49.976;20.182;2023-02-22T09:39:13;6.96;66.96
75022;SHT31;63583;49.976;20.182;2023-02-22T09:44:39;6.78;66.89
75022;SHT31;63583;49.976;20.182;2023-02-22T09:47:17;6.72;67.71
75022;SHT31;63583;49.976;20.182;2023-02-22T09:49:59;6.91;67.52
75022;SHT31;63583;49.976;20.182;2023-02-22T09:52:39;6.95;64.68
75022;SHT31;63583;49.976;20.182;2023-02-22T09:58:05;6.98;64.72
75022;SHT31;63583;49.976;20.182;2023-02-22T10:00:34;7.00;64.33
75022;SHT31;63583;49.976;20.182;2023-02-22T10:03:27;7.10;64.55
75022;SHT31;63583;49.976;20.182;2023-02-22T10:06:03;7.17;63.30
75022;SHT31;63583;49.976;20.182;2023-02-22T10:08:33;7.26;62.68
75022;SHT31;63583;49.976;20.182;2023-02-22T10:13:59;7.23;62.08
75022;SHT31;63583;49.976;20.182;2023-02-22T10:20:09;7.42;64.35
75022;SHT31;63583;49.976;20.182;2023-02-22T10:25:21;7.79;59.00
75022;SHT31;63583;49.976;20.182;2023-02-22T10:28:01;8.15;56.39
75022;SHT31;63583;49.976;20.182;2023-02-22T10:30:48;8.19;57.13
75022;SHT31;63583;49.976;20.182;2023-02-22T10:33:26;7.92;57.46
75022;SHT31;63583;49.976;20.182;2023-02-22T10:35:53;8.05;57.77
75022;SHT31;63583;49.976;20.182;2023-02-22T10:38:23;8.09;55.80
75022;SHT31;63583;49.976;20.182;2023-02-22T10:41:02;7.95;55.89
75022;SHT31;63583;49.976;20.182;2023-02-22T10:43:39;7.96;56.10
75022;SHT31;63583;49.976;20.182;2023-02-22T10:46:07;7.89;56.88
75022;SHT31;63583;49.976;20.182;2023-02-22T10:48:36;7.86;56.71
75022;SHT31;63583;49.976;20.182;2023-02-22T10:51:05;8.05;57.20
75022;SHT31;63583;49.976;20.182;2023-02-22T10:53:34;8.10;57.73
75022;SHT31;63583;49.976;20.182;2023-02-22T10:58:48;8.21;58.94
75022;SHT31;63583;49.976;20.182;2023-02-22T11:01:41;8.26;56.67
75022;SHT31;63583;49.976;20.182;2023-02-22T11:04:12;8.07;58.34
75022;SHT31;63583;49.976;20.182;2023-02-22T11:06:44;8.39;57.13
75022;SHT31;63583;49.976;20.182;2023-02-22T11:09:18;8.59;58.41
75022;SHT31;63583;49.976;20.182;2023-02-22T11:11:47;8.51;57.34
75022;SHT31;63583;49.976;20.182;2023-02-22T11:14:28;8.56;58.43
75022;SHT31;63583;49.976;20.182;2023-02-22T11:16:56;8.56;58.28
75022;SHT31;63583;49.976;20.182;2023-02-22T11:19:25;8.37;56.20
75022;SHT31;63583;49.976;20.182;2023-02-22T11:21:57;8.34;55.83
75022;SHT31;63583;49.976;20.182;2023-02-22T11:24:24;8.33;54.91
75022;SHT31;63583;49.976;20.182;2023-02-22T11:26:59;8.39;55.59
75022;SHT31;63583;49.976;20.182;2023-02-22T11:29:31;8.39;56.12
75022;SHT31;63583;49.976;20.182;2023-02-22T11:32:01;8.42;55.29
75022;SHT31;63583;49.976;20.182;2023-02-22T11:34:35;8.29;55.78
75022;SHT31;63583;49.976;20.182;2023-02-22T11:37:30;8.46;55.39
75022;SHT31;63583;49.976;20.182;2023-02-22T11:40:12;8.40;55.02
75022;SHT31;63583;49.976;20.182;2023-02-22T11:42:38;8.28;55.51
75022;SHT31;63583;49.976;20.182;2023-02-22T11:48:00;8.51;56.00
75022;SHT31;63583;49.976;20.182;2023-02-22T11:55:52;8.50;54.80
75022;SHT31;63583;49.976;20.182;2023-02-22T11:58:32;8.42;53.52
75022;SHT31;63583;49.976;20.182;2023-02-22T12:04:26;7.82;55.67
75022;SHT31;63583;49.976;20.182;2023-02-22T12:12:58;7.60;56.38
75022;SHT31;63583;49.976;20.182;2023-02-22T12:18:17;7.64;56.32
75022;SHT31;63583;49.976;20.182;2023-02-22T12:20:56;7.56;55.62
75022;SHT31;63583;49.976;20.182;2023-02-22T12:23:29;7.56;56.70
75022;SHT31;63583;49.976;20.182;2023-02-22T12:26:02;7.30;56.16
75022;SHT31;63583;49.976;20.182;2023-02-22T12:28:39;7.34;56.40
75022;SHT31;63583;49.976;20.182;2023-02-22T12:31:20;7.27;56.27
75022;SHT31;63583;49.976;20.182;2023-02-22T12:33:53;7.37;57.26
75022;SHT31;63583;49.976;20.182;2023-02-22T12:36:29;7.43;56.15
75022;SHT31;63583;49.976;20.182;2023-02-22T12:39:03;7.46;56.59
75022;SHT31;63583;49.976;20.182;2023-02-22T12:41:39;7.57;56.24
75022;SHT31;63583;49.976;20.182;2023-02-22T12:44:20;7.50;56.17
75022;SHT31;63583;49.976;20.182;2023-02-22T12:46:51;7.58;57.06
75022;SHT31;63583;49.976;20.182;2023-02-22T12:49:39;7.60;56.89
75022;SHT31;63583;49.976;20.182;2023-02-22T12:54:53;7.68;56.63
75022;SHT31;63583;49.976;20.182;2023-02-22T12:58:20;7.84;56.93
75022;SHT31;63583;49.976;20.182;2023-02-22T13:00:40;7.95;56.19
75022;SHT31;63583;49.976;20.182;2023-02-22T13:05:40;8.02;55.84
75022;SHT31;63583;49.976;20.182;2023-02-22T13:08:29;7.95;56.41
75022;SHT31;63583;49.976;20.182;2023-02-22T13:11:09;7.95;56.03
75022;SHT31;63583;49.976;20.182;2023-02-22T13:13:48;8.02;55.86
75022;SHT31;63583;49.976;20.182;2023-02-22T13:19:25;7.99;56.51
75022;SHT31;63583;49.976;20.182;2023-02-22T13:22:01;8.05;56.08
75022;SHT31;63583;49.976;20.182;2023-02-22T13:24:45;8.07;56.67
75022;SHT31;63583;49.976;20.182;2023-02-22T13:27:22;7.89;57.52
75022;SHT31;63583;49.976;20.182;2023-02-22T13:29:55;7.94;57.56
75022;SHT31;63583;49.976;20.182;2023-02-22T13:51:59;7.34;59.07
75022;SHT31;63583;49.976;20.182;2023-02-22T13:54:45;7.40;59.61
75022;SHT31;63583;49.976;20.182;2023-02-22T13:57:27;7.44;58.83
75022;SHT31;63583;49.976;20.182;2023-02-22T14:08:04;7.43;59.31
75022;SHT31;63583;49.976;20.182;2023-02-22T14:10:57;7.23;60.13
75022;SHT31;63583;49.976;20.182;2023-02-22T14:13:31;7.34;59.69
75022;SHT31;63583;49.976;20.182;2023-02-22T14:18:48;7.23;58.60
75022;SHT31;63583;49.976;20.182;2023-02-22T14:21:18;7.48;57.40
75022;SHT31;63583;49.976;20.182;2023-02-22T14:23:55;7.50;58.11
75022;SHT31;63583;49.976;20.182;2023-02-22T14:26:30;7.37;57.96
75022;SHT31;63583;49.976;20.182;2023-02-22T14:28:57;7.37;58.69
75022;SHT31;63583;49.976;20.182;2023-02-22T14:31:31;7.50;58.61
75022;SHT31;63583;49.976;20.182;2023-02-22T14:39:36;7.03;59.48
75022;SHT31;63583;49.976;20.182;2023-02-22T14:42:09;7.12;58.76
75022;SHT31;63583;49.976;20.182;2023-02-22T14:47:39;6.99;59.92
75022;SHT31;63583;49.976;20.182;2023-02-22T14:51:06;6.92;60.14
75022;SHT31;63583;49.976;20.182;2023-02-22T14:55:41;6.93;59.59
75022;SHT31;63583;49.976;20.182;2023-02-22T14:58:14;6.85;60.87
75022;SHT31;63583;49.976;20.182;2023-02-22T15:00:46;6.75;59.87
75022;SHT31;63583;49.976;20.182;2023-02-22T15:03:29;6.79;60.61
75022;SHT31;63583;49.976;20.182;2023-02-22T15:06:27;6.70;60.41
75022;SHT31;63583;49.976;20.182;2023-02-22T15:11:30;6.88;59.57
75022;SHT31;63583;49.976;20.182;2023-02-22T15:13:58;6.82;60.11
75022;SHT31;63583;49.976;20.182;2023-02-22T15:16:29;6.78;60.11
75022;SHT31;63583;49.976;20.182;2023-02-22T15:18:58;6.79;60.63
75022;SHT31;63583;49.976;20.182;2023-02-22T15:21:27;6.58;61.88
75022;SHT31;63583;49.976;20.182;2023-02-22T15:23:58;6.60;60.39
75022;SHT31;63583;49.976;20.182;2023-02-22T15:26:32;6.63;60.81
75022;SHT31;63583;49.976;20.182;2023-02-22T15:29:01;6.44;61.30
75022;SHT31;63583;49.976;20.182;2023-02-22T15:31:37;6.36;62.01
75022;SHT31;63583;49.976;20.182;2023-02-22T15:34:39;6.10;63.95
75022;SHT31;63583;49.976;20.182;2023-02-22T15:37:22;5.86;64.83
75022;SHT31;63583;49.976;20.182;2023-02-22T15:40:04;5.85;65.23
75022;SHT31;63583;49.976;20.182;2023-02-22T15:42:30;5.85;66.31
75022;SHT31;63583;49.976;20.182;2023-02-22T15:44:56;5.89;67.11
75022;SHT31;63583;49.976;20.182;2023-02-22T15:47:28;5.72;67.27
75022;SHT31;63583;49.976;20.182;2023-02-22T15:50:23;5.65;67.64
75022;SHT31;63583;49.976;20.182;2023-02-22T15:55:36;5.35;68.47
75022;SHT31;63583;49.976;20.182;2023-02-22T16:00:46;5.33;67.86
75022;SHT31;63583;49.976;20.182;2023-02-22T16:03:15;5.23;68.17
75022;SHT31;63583;49.976;20.182;2023-02-22T16:05:46;5.23;68.21
75022;SHT31;63583;49.976;20.182;2023-02-22T16:08:25;5.19;68.62
75022;SHT31;63583;49.976;20.182;2023-02-22T16:11:06;5.07;68.46
75022;SHT31;63583;49.976;20.182;2023-02-22T16:13:39;5.00;68.52
75022;SHT31;63583;49.976;20.182;2023-02-22T16:21:52;4.96;68.78
75022;SHT31;63583;49.976;20.182;2023-02-22T16:24:26;4.92;68.38
75022;SHT31;63583;49.976;20.182;2023-02-22T16:27:24;4.85;68.64
75022;SHT31;63583;49.976;20.182;2023-02-22T16:30:06;4.79;68.57
75022;SHT31;63583;49.976;20.182;2023-02-22T16:32:33;4.72;68.81
75022;SHT31;63583;49.976;20.182;2023-02-22T16:34:59;4.71;68.79
75022;SHT31;63583;49.976;20.182;2023-02-22T16:37:24;4.75;69.00
75022;SHT31;63583;49.976;20.182;2023-02-22T16:39:54;4.76;68.60
75022;SHT31;63583;49.976;20.182;2023-02-22T16:42:21;4.76;68.19
75022;SHT31;63583;49.976;20.182;2023-02-22T16:44:51;4.75;68.38
75022;SHT31;63583;49.976;20.182;2023-02-22T16:47:18;4.78;68.22
75022;SHT31;63583;49.976;20.182;2023-02-22T16:49:48;4.72;68.39
75022;SHT31;63583;49.976;20.182;2023-02-22T16:52:17;4.73;68.74
75022;SHT31;63583;49.976;20.182;2023-02-22T16:54:44;4.72;68.04
75022;SHT31;63583;49.976;20.182;2023-02-22T16:57:20;4.72;67.46
75022;SHT31;63583;49.976;20.182;2023-02-22T16:59:47;4.76;66.90
75022;SHT31;63583;49.976;20.182;2023-02-22T17:02:17;4.76;66.69
75022;SHT31;63583;49.976;20.182;2023-02-22T17:04:43;4.79;67.33
75022;SHT31;63583;49.976;20.182;2023-02-22T17:07:18;4.83;66.72
75022;SHT31;63583;49.976;20.182;2023-02-22T17:09:45;4.83;66.91
75022;SHT31;63583;49.976;20.182;2023-02-22T17:12:12;4.80;66.57
75022;SHT31;63583;49.976;20.182;2023-02-22T17:14:38;4.79;66.26
75022;SHT31;63583;49.976;20.182;2023-02-22T17:17:06;4.82;65.95
75022;SHT31;63583;49.976;20.182;2023-02-22T17:19:32;4.85;66.18
75022;SHT31;63583;49.976;20.182;2023-02-22T17:21:58;4.85;65.81
75022;SHT31;63583;49.976;20.182;2023-02-22T17:24:23;4.80;66.59
75022;SHT31;63583;49.976;20.182;2023-02-22T17:26:53;4.85;66.28
75022;SHT31;63583;49.976;20.182;2023-02-22T17:29:22;4.83;66.16
75022;SHT31;63583;49.976;20.182;2023-02-22T17:31:49;4.90;66.05
75022;SHT31;63583;49.976;20.182;2023-02-22T17:34:16;4.87;66.08
75022;SHT31;63583;49.976;20.182;2023-02-22T17:36:42;4.85;66.48
75022;SHT31;63583;49.976;20.182;2023-02-22T17:39:08;4.78;67.32
75022;SHT31;63583;49.976;20.182;2023-02-22T17:41:35;4.67;67.82
75022;SHT31;63583;49.976;20.182;2023-02-22T17:44:03;4.92;66.92
75022;SHT31;63583;49.976;20.182;2023-02-22T17:46:29;4.80;67.43
75022;SHT31;63583;49.976;20.182;2023-02-22T17:48:56;4.71;67.64
75022;SHT31;63583;49.976;20.182;2023-02-22T17:51:24;4.78;67.39
75022;SHT31;63583;49.976;20.182;2023-02-22T17:53:50;4.76;67.79
75022;SHT31;63583;49.976;20.182;2023-02-22T17:56:17;4.78;67.37
75022;SHT31;63583;49.976;20.182;2023-02-22T17:58:45;4.80;67.56
75022;SHT31;63583;49.976;20.182;2023-02-22T18:01:26;4.95;66.62
75022;SHT31;63583;49.976;20.182;2023-02-22T18:03:57;5.01;66.41
75022;SHT31;63583;49.976;20.182;2023-02-22T18:06:24;4.96;66.37